Humidity-temperature Sensor

Selected Measurement Type: Relative Humidity

 
Relative Humidity [%]     6 entries per hour
Showing data from 11/5/2014 (12:40:00 Z) to 10/29/2014 (00:01:00 Z)
Previous Next [ Day | 3-Days | 7-Days ]
First Last
Prev [ Day | 3-Days | 7-Days ] Next
First Last

Start Time:     :
End Time:     :     
Time (in GMT) :00 :50 :40 :30 :20 :10
Previous Next [ Day | 3-Days | 7-Days ]
First Last
Prev [ Day | 3-Days | 7-Days ] Next
First Last


123 => good data
MM => data is determined as missing
-- => data not received/configured
Back to Top Back to Top
11/5/2014 13:00 to 12:10 -- -- 76.51 76.70 76.85 76.60
11/5/2014 12:00 to 11:10 77.09 76.56 76.32 76.32 75.69 75.18
11/5/2014 11:00 to 10:10 75.01 75.20 75.86 76.73 76.90 76.66
11/5/2014 10:00 to 9:10 76.73 76.53 76.51 76.73 77.70 78.63
11/5/2014 09:00 to 8:10 79.29 78.99 78.46 78.36 78.17 78.19
11/5/2014 08:00 to 7:10 77.91 77.76 77.55 77.53 77.74 77.06
11/5/2014 07:00 to 6:10 77.02 76.79 76.66 76.60 76.83 76.56
11/5/2014 06:00 to 5:10 75.81 75.84 76.11 76.17 76.34 75.64
11/5/2014 05:00 to 4:10 -- -- -- -- -- --
11/5/2014 04:00 to 3:10 75.16 74.31 74.82 74.73 74.50 74.65
11/5/2014 03:00 to 2:10 74.90 75.01 74.27 73.95 73.33 72.59
11/5/2014 02:00 to 1:10 72.57 73.61 73.10 72.78 72.04 71.28
11/5/2014 01:00 to 0:10 71.38 71.64 71.98 71.57 72.38 71.17
11/5/2014 00:00 to 23:10 71.28 71.04 71.28 70.94 71.09 70.13
11/4/2014 23:00 to 22:10 71.02 71.09 71.28 71.34 71.94 72.04
11/4/2014 22:00 to 21:10 72.85 72.76 71.81 72.83 72.47 72.38
11/4/2014 21:00 to 20:10 72.19 72.89 72.97 72.61 71.68 70.98
11/4/2014 20:00 to 19:10 71.04 70.49 71.74 72.40 71.43 71.74
11/4/2014 19:00 to 18:10 72.06 73.21 74.31 74.63 74.03 72.57
11/4/2014 18:00 to 17:10 72.25 72.04 71.83 72.27 71.77 73.21
11/4/2014 17:00 to 16:10 72.08 71.09 71.79 71.77 72.13 71.83
11/4/2014 16:00 to 15:10 71.89 72.87 72.91 71.68 71.13 72.57
11/4/2014 15:00 to 14:10 73.10 73.08 73.86 74.05 74.84 75.26
11/4/2014 14:00 to 13:10 74.63 73.69 72.38 73.42 73.99 74.10
11/4/2014 13:00 to 12:10 74.52 74.16 73.82 73.48 73.69 74.35
11/4/2014 12:00 to 11:10 74.86 74.39 75.31 75.71 75.50 76.07
11/4/2014 11:00 to 10:10 75.96 75.43 75.58 75.26 75.92 76.07
11/4/2014 10:00 to 9:10 76.24 75.84 76.81 76.09 76.28 75.79
11/4/2014 09:00 to 8:10 75.09 75.33 75.84 74.95 73.74 73.76
11/4/2014 08:00 to 7:10 73.93 72.80 73.48 75.01 74.31 74.39
11/4/2014 07:00 to 6:10 74.39 74.54 73.57 73.50 73.19 73.12
11/4/2014 06:00 to 5:10 72.36 72.02 72.25 72.40 72.02 72.27
11/4/2014 05:00 to 4:10 71.79 72.19 72.80 73.21 74.67 74.86
11/4/2014 04:00 to 3:10 74.63 73.99 73.63 72.27 73.40 73.16
11/4/2014 03:00 to 2:10 73.33 72.89 72.95 73.21 71.83 72.23
11/4/2014 02:00 to 1:10 72.83 71.98 72.17 72.13 71.94 72.23
11/4/2014 01:00 to 0:10 70.90 70.15 70.49 71.68 72.83 72.17
11/4/2014 00:00 to 23:10 72.40 73.14 73.25 71.87 71.83 71.34
11/3/2014 23:00 to 22:10 72.61 73.61 73.97 74.05 74.99 75.18
11/3/2014 22:00 to 21:10 76.47 76.26 75.41 74.08 74.33 73.61
11/3/2014 21:00 to 20:10 72.93 72.63 72.57 73.29 74.31 73.61
11/3/2014 20:00 to 19:10 73.31 73.63 73.21 73.19 73.67 73.27
11/3/2014 19:00 to 18:10 73.55 73.44 73.61 73.50 73.57 74.37
11/3/2014 18:00 to 17:10 73.61 73.61 73.59 72.93 73.25 73.12
11/3/2014 17:00 to 16:10 72.80 72.15 72.13 71.51 71.79 71.74
11/3/2014 16:00 to 15:10 70.75 71.96 71.51 72.53 71.96 73.42
11/3/2014 15:00 to 14:10 73.06 72.61 71.96 73.44 72.72 72.85
11/3/2014 14:00 to 13:10 72.87 73.42 73.67 73.74 73.97 74.12
11/3/2014 13:00 to 12:10 74.01 73.29 73.99 73.86 73.46 73.82
11/3/2014 12:00 to 11:10 74.01 73.67 74.08 74.58 74.63 74.67
11/3/2014 11:00 to 10:10 75.26 75.24 73.06 74.10 74.25 74.99
11/3/2014 10:00 to 9:10 75.71 75.09 75.94 75.05 75.84 74.99
11/3/2014 09:00 to 8:10 74.80 75.03 75.14 76.11 74.80 76.28
11/3/2014 08:00 to 7:10 75.20 74.44 74.48 74.18 74.58 75.48
11/3/2014 07:00 to 6:10 75.64 74.61 73.55 73.14 72.74 72.59
11/3/2014 06:00 to 5:10 74.35 74.39 74.73 73.97 73.69 73.23
11/3/2014 05:00 to 4:10 73.67 74.03 73.99 73.67 73.61 73.29
11/3/2014 04:00 to 3:10 72.36 73.14 73.06 73.04 73.46 73.29
11/3/2014 03:00 to 2:10 74.01 74.22 75.54 77.45 75.11 75.28
11/3/2014 02:00 to 1:10 74.61 74.16 73.59 71.51 72.13 71.72
11/3/2014 01:00 to 0:10 71.66 72.83 73.67 72.19 73.04 73.52
11/3/2014 00:00 to 23:10 73.40 73.59 73.67 73.36 73.57 73.38
11/2/2014 23:00 to 22:10 73.33 73.99 73.33 73.57 74.16 74.31
11/2/2014 22:00 to 21:10 74.46 74.14 74.54 74.37 74.31 73.74
11/2/2014 21:00 to 20:10 74.35 74.10 73.97 73.59 74.39 75.20
11/2/2014 20:00 to 19:10 74.86 73.25 73.69 74.63 76.11 74.78
11/2/2014 19:00 to 18:10 73.82 73.67 73.31 74.12 74.42 74.90
11/2/2014 18:00 to 17:10 75.24 74.67 74.39 72.93 73.42 73.27
11/2/2014 17:00 to 16:10 72.49 73.21 73.50 73.42 72.30 70.92
11/2/2014 16:00 to 15:10 71.13 72.53 71.96 72.21 73.12 73.42
11/2/2014 15:00 to 14:10 72.76 73.48 73.52 73.57 73.29 71.34
11/2/2014 14:00 to 13:10 72.06 72.17 71.57 73.12 73.78 74.14
11/2/2014 13:00 to 12:10 73.84 74.37 74.08 75.96 76.30 75.75
11/2/2014 12:00 to 11:10 75.77 76.30 76.32 76.47 75.88 76.17
11/2/2014 11:00 to 10:10 75.96 76.11 76.53 76.68 76.96 76.53
11/2/2014 10:00 to 9:10 77.66 77.32 77.17 77.15 76.92 77.40
11/2/2014 09:00 to 8:10 78.63 78.93 78.74 78.57 78.36 78.44
11/2/2014 08:00 to 7:10 80.03 78.57 78.89 78.55 79.04 80.18
11/2/2014 07:00 to 6:10 80.35 80.69 81.69 79.31 78.89 79.61
11/2/2014 06:00 to 5:10 80.29 81.62 78.80 79.48 79.86 80.29
11/2/2014 05:00 to 4:10 -- -- -- -- -- --
11/2/2014 04:00 to 3:10 78.65 78.44 77.45 77.91 78.15 77.98
11/2/2014 03:00 to 2:10 77.15 77.38 77.53 77.21 76.28 75.22
11/2/2014 02:00 to 1:10 74.84 75.50 75.96 75.60 75.92 75.69
11/2/2014 01:00 to 0:10 75.28 75.86 75.75 75.56 78.21 79.65
11/2/2014 00:00 to 23:10 78.61 77.72 77.55 77.83 77.89 76.77
11/1/2014 23:00 to 22:10 77.19 77.59 76.73 77.06 77.72 80.05
11/1/2014 22:00 to 21:10 83.42 78.40 78.21 78.12 79.01 79.86
11/1/2014 21:00 to 20:10 79.76 79.18 78.72 79.27 79.59 79.61
11/1/2014 20:00 to 19:10 79.27 78.02 78.25 79.08 79.25 79.21
11/1/2014 19:00 to 18:10 79.16 79.23 79.44 79.67 79.54 79.74
11/1/2014 18:00 to 17:10 79.61 79.59 79.91 79.71 79.50 79.63
11/1/2014 17:00 to 16:10 79.23 78.12 77.28 76.70 77.04 77.06
11/1/2014 16:00 to 15:10 76.98 77.00 76.75 76.28 77.02 75.52
11/1/2014 15:00 to 14:10 75.75 75.64 75.90 77.51 78.70 78.36
11/1/2014 14:00 to 13:10 77.17 77.64 77.83 78.04 77.45 77.13
11/1/2014 13:00 to 12:10 76.24 77.30 78.00 77.28 77.15 77.53
11/1/2014 12:00 to 11:10 77.76 78.32 77.79 78.36 77.76 78.32
11/1/2014 11:00 to 10:10 78.51 78.40 78.72 78.78 78.34 78.29
11/1/2014 10:00 to 9:10 78.04 77.74 77.64 78.85 79.31 79.27
11/1/2014 09:00 to 8:10 80.01 79.82 78.55 79.21 79.74 79.01
11/1/2014 08:00 to 7:10 79.80 79.63 78.61 77.04 77.00 77.17
11/1/2014 07:00 to 6:10 76.58 77.87 77.83 78.63 78.78 77.89
11/1/2014 06:00 to 5:10 78.76 78.55 78.21 78.36 79.14 79.31
11/1/2014 05:00 to 4:10 79.04 79.25 78.72 78.21 77.81 77.76
11/1/2014 04:00 to 3:10 77.66 78.10 78.27 77.83 77.11 77.38
11/1/2014 03:00 to 2:10 77.02 77.13 76.94 76.32 76.22 76.22
11/1/2014 02:00 to 1:10 75.69 75.05 74.37 74.14 74.78 74.50
11/1/2014 01:00 to 0:10 74.63 74.67 74.56 74.71 74.37 73.82
11/1/2014 00:00 to 23:10 73.21 73.29 73.06 72.59 72.42 73.78
10/31/2014 23:00 to 22:10 73.95 73.50 72.87 73.50 74.52 76.15
10/31/2014 22:00 to 21:10 77.57 76.98 76.47 76.68 76.00 76.07
10/31/2014 21:00 to 20:10 76.17 76.49 76.68 77.36 78.08 77.96
10/31/2014 20:00 to 19:10 77.64 77.51 77.96 77.59 77.51 76.85
10/31/2014 19:00 to 18:10 77.00 77.38 77.26 77.74 78.04 77.66
10/31/2014 18:00 to 17:10 76.94 76.60 76.85 77.89 79.31 79.14
10/31/2014 17:00 to 16:10 79.27 79.04 78.55 78.04 77.70 77.09
10/31/2014 16:00 to 15:10 77.21 77.49 77.38 77.79 78.78 79.52
10/31/2014 15:00 to 14:10 80.14 79.46 80.46 80.24 80.75 81.13
10/31/2014 14:00 to 13:10 81.71 81.81 81.43 80.80 80.54 80.20
10/31/2014 13:00 to 12:10 79.97 79.84 79.52 79.46 79.33 80.24
10/31/2014 12:00 to 11:10 79.97 80.73 80.29 80.07 80.48 80.88
10/31/2014 11:00 to 10:10 80.99 81.26 81.39 81.49 81.16 81.24
10/31/2014 10:00 to 9:10 81.05 80.90 81.24 81.62 81.39 81.11
10/31/2014 09:00 to 8:10 80.77 80.56 79.99 79.88 80.10 79.84
10/31/2014 08:00 to 7:10 79.74 79.88 79.67 79.61 79.40 78.61
10/31/2014 07:00 to 6:10 78.93 78.91 78.32 78.25 78.57 78.19
10/31/2014 06:00 to 5:10 77.79 77.28 77.30 77.47 77.51 77.74
10/31/2014 05:00 to 4:10 77.81 78.63 79.12 78.76 78.44 78.10
10/31/2014 04:00 to 3:10 78.61 78.46 77.36 76.85 76.66 77.40
10/31/2014 03:00 to 2:10 77.74 77.87 77.76 77.81 77.15 76.64
10/31/2014 02:00 to 1:10 76.28 75.56 76.03 76.34 75.79 75.71
10/31/2014 01:00 to 0:10 75.71 76.51 78.51 80.24 82.98 76.32
10/31/2014 00:00 to 23:10 76.53 76.47 76.75 77.66 77.34 77.30
10/30/2014 23:00 to 22:10 76.90 77.21 77.47 77.34 76.70 77.13
10/30/2014 22:00 to 21:10 77.23 77.53 77.55 77.51 77.96 78.36
10/30/2014 21:00 to 20:10 78.70 79.44 79.01 78.89 79.84 79.38
10/30/2014 20:00 to 19:10 79.04 79.06 79.29 79.35 79.25 79.46
10/30/2014 19:00 to 18:10 80.33 80.07 80.75 81.60 83.32 85.27
10/30/2014 18:00 to 17:10 79.63 79.65 79.59 79.29 79.48 79.10
10/30/2014 17:00 to 16:10 80.10 79.40 78.82 79.23 78.93 78.78
10/30/2014 16:00 to 15:10 79.10 79.40 80.65 80.82 78.53 78.48
10/30/2014 15:00 to 14:10 79.01 79.12 80.20 80.65 81.96 82.00
10/30/2014 14:00 to 13:10 82.45 82.41 82.22 82.39 82.28 82.07
10/30/2014 13:00 to 12:10 81.81 81.79 81.83 82.17 81.96 82.17
10/30/2014 12:00 to 11:10 82.02 81.73 81.54 81.52 81.69 81.26
10/30/2014 11:00 to 10:10 81.39 81.13 80.75 80.99 81.35 81.62
10/30/2014 10:00 to 9:10 81.11 80.65 80.37 80.29 80.20 80.52
10/30/2014 09:00 to 8:10 80.29 80.24 80.03 79.67 79.23 79.06
10/30/2014 08:00 to 7:10 79.12 79.12 79.16 78.63 78.99 79.52
10/30/2014 07:00 to 6:10 79.71 80.07 80.01 80.48 80.56 80.07
10/30/2014 06:00 to 5:10 79.44 79.35 79.16 78.93 78.91 79.48
10/30/2014 05:00 to 4:10 80.22 79.91 80.03 79.69 79.57 79.88
10/30/2014 04:00 to 3:10 80.12 80.27 80.29 80.01 79.52 79.91
10/30/2014 03:00 to 2:10 79.52 80.05 80.16 80.69 80.99 80.65
10/30/2014 02:00 to 1:10 80.54 80.07 79.46 78.91 78.65 78.02
10/30/2014 01:00 to 0:10 77.32 77.89 77.34 76.92 76.90 77.30
10/30/2014 00:00 to 23:10 77.81 77.66 77.79 77.26 77.76 77.87
10/29/2014 23:00 to 22:10 78.59 80.50 80.54 80.58 80.33 80.56
10/29/2014 22:00 to 21:10 79.88 79.31 80.48 80.88 80.77 80.69
10/29/2014 21:00 to 20:10 81.30 81.43 81.11 80.60 80.31 80.65
10/29/2014 20:00 to 19:10 80.71 80.01 80.05 80.03 79.65 80.48
10/29/2014 19:00 to 18:10 80.27 80.12 79.88 79.74 79.33 79.69
10/29/2014 18:00 to 17:10 79.44 80.71 81.03 80.07 80.31 79.67
10/29/2014 17:00 to 16:10 79.59 79.38 78.76 78.44 78.59 79.82
10/29/2014 16:00 to 15:10 80.54 79.08 79.44 79.54 78.04 78.78
10/29/2014 15:00 to 14:10 79.42 80.56 80.18 80.22 80.10 79.99
10/29/2014 14:00 to 13:10 79.91 79.76 79.86 79.42 80.31 79.80
10/29/2014 13:00 to 12:10 79.46 79.46 79.57 79.21 78.97 79.40
10/29/2014 12:00 to 11:10 79.76 79.59 79.67 79.71 79.23 79.82
10/29/2014 11:00 to 10:10 81.09 81.62 81.49 81.03 81.03 81.09
10/29/2014 10:00 to 9:10 80.80 80.46 80.82 81.18 80.39 80.03
10/29/2014 09:00 to 8:10 80.05 81.01 80.75 80.22 80.58 80.50
10/29/2014 08:00 to 7:10 80.52 80.92 80.99 81.20 80.99 81.39
10/29/2014 07:00 to 6:10 80.69 81.35 82.53 82.53 82.83 82.64
10/29/2014 06:00 to 5:10 82.30 82.34 82.75 83.02 82.47 81.35
10/29/2014 05:00 to 4:10 80.54 79.31 79.16 78.93 80.31 80.71
10/29/2014 04:00 to 3:10 80.58 80.20 81.30 83.47 84.55 80.35
10/29/2014 03:00 to 2:10 79.65 79.95 79.46 80.03 80.24 79.38
10/29/2014 02:00 to 1:10 79.14 78.68 78.51 78.61 77.17 77.76
10/29/2014 01:00 to 0:10 77.00 77.28 77.34 76.30 76.47 76.64